Time;durP1;ratioP1;P1;durP2;ratioP2;P2;SDS_P1;SDS_P2;PMS_P1;PMS_P2;Temp;Humidity;BMP_temperature;BMP_pressure;BME280_temperature;BME280_humidity;BME280_pressure;Samples;Min_cycle;Max_cycle;Signal;HPM_P1;HPM_P2
2023/10/05 00:01:53;;;;;;;9.00;2.40;;;13.00;99.90;;;;;;5092119;28;20040;-71
2023/10/05 00:04:22;;;;;;;7.63;2.50;;;13.00;99.90;;;;;;5087504;28;20500;-70
2023/10/05 00:06:53;;;;;;;8.10;3.08;;;13.10;99.90;;;;;;5094882;28;20128;-70
2023/10/05 00:09:20;;;;;;;12.10;2.90;;;13.10;99.90;;;;;;5078188;28;20559;-70
2023/10/05 00:11:47;;;;;;;6.05;1.95;;;13.10;99.90;;;;;;5077390;28;20036;-70
2023/10/05 00:14:15;;;;;;;9.10;2.85;;;13.20;99.90;;;;;;5078002;28;20439;-71
2023/10/05 00:16:47;;;;;;;9.05;2.83;;;13.10;99.90;;;;;;5077827;28;20093;-69
2023/10/05 00:19:16;;;;;;;13.02;2.95;;;13.10;99.90;;;;;;5077276;28;20055;-70
2023/10/05 00:21:50;;;;;;;7.18;2.58;;;13.20;99.90;;;;;;5077467;28;20046;-70
2023/10/05 00:24:20;;;;;;;7.70;2.85;;;13.20;99.90;;;;;;5077641;28;20052;-70
2023/10/05 00:26:48;;;;;;;11.05;3.22;;;13.10;99.90;;;;;;5077411;28;20052;-70
2023/10/05 00:29:19;;;;;;;10.00;2.60;;;13.10;99.90;;;;;;5077566;28;20052;-71
2023/10/05 00:31:48;;;;;;;6.97;2.72;;;13.10;99.90;;;;;;5077284;28;20036;-70
2023/10/05 00:34:24;;;;;;;7.63;2.85;;;13.10;99.90;;;;;;5073756;28;20118;-71
2023/10/05 00:36:55;;;;;;;7.78;2.45;;;13.10;99.90;;;;;;5076950;28;20113;-70
2023/10/05 00:39:24;;;;;;;6.72;2.92;;;13.10;99.90;;;;;;5077091;28;20129;-70
2023/10/05 00:41:59;;;;;;;8.90;3.17;;;13.10;99.90;;;;;;5077116;28;20044;-70
2023/10/05 00:44:30;;;;;;;11.60;3.22;;;13.00;99.90;;;;;;5077404;28;20059;-71
2023/10/05 00:47:00;;;;;;;10.05;2.45;;;13.00;99.90;;;;;;5076915;28;20048;-70
2023/10/05 00:49:29;;;;;;;8.48;2.45;;;13.00;99.90;;;;;;5077406;28;20561;-70
2023/10/05 00:52:08;;;;;;;6.43;2.83;;;12.90;99.90;;;;;;5077380;28;20448;-70
2023/10/05 00:54:36;;;;;;;11.05;2.63;;;12.90;99.90;;;;;;5076593;28;20047;-72
2023/10/05 00:57:09;;;;;;;7.72;2.85;;;12.90;99.90;;;;;;5091953;28;20500;-70
2023/10/05 00:59:37;;;;;;;6.45;2.72;;;12.80;99.90;;;;;;5077172;28;20138;-70
2023/10/05 01:02:14;;;;;;;10.10;3.00;;;12.90;99.90;;;;;;5094730;28;20052;-71
2023/10/05 01:04:55;;;;;;;6.25;2.30;;;13.50;99.90;;;;;;5077217;28;20048;-71
2023/10/05 01:07:43;;;;;;;13.20;2.95;;;12.80;99.90;;;;;;5076694;28;20996;-71
2023/10/05 01:10:29;;;;;;;10.75;3.00;;;12.80;99.90;;;;;;5077051;28;20048;-70
2023/10/05 01:12:58;;;;;;;14.63;2.80;;;12.80;99.90;;;;;;5073255;28;20393;-71
2023/10/05 01:15:31;;;;;;;11.75;3.53;;;12.80;99.90;;;;;;5076558;28;20063;-71
2023/10/05 01:17:59;;;;;;;7.28;2.80;;;12.80;99.90;;;;;;5075589;28;20450;-71
2023/10/05 01:20:29;;;;;;;11.60;2.65;;;12.80;99.90;;;;;;5073049;28;20060;-71
2023/10/05 01:22:58;;;;;;;10.18;2.97;;;12.70;99.90;;;;;;5076152;28;20048;-70
2023/10/05 01:25:27;;;;;;;6.88;2.53;;;12.80;99.90;;;;;;5076999;28;20052;-69
2023/10/05 01:27:55;;;;;;;9.93;2.75;;;12.80;99.90;;;;;;5072867;28;20048;-70
2023/10/05 01:30:23;;;;;;;7.18;3.08;;;12.80;99.90;;;;;;5076421;28;20059;-70
2023/10/05 01:32:50;;;;;;;12.38;2.80;;;12.80;99.90;;;;;;5076683;28;20488;-71
2023/10/05 01:35:23;;;;;;;6.82;2.42;;;12.80;99.90;;;;;;5076226;28;20404;-71
2023/10/05 01:37:52;;;;;;;8.95;2.85;;;12.80;99.90;;;;;;5076603;28;20044;-70
2023/10/05 01:40:30;;;;;;;8.40;2.65;;;12.80;99.90;;;;;;5076606;28;20507;-70
2023/10/05 01:42:59;;;;;;;9.43;2.88;;;12.80;99.90;;;;;;5075627;28;20569;-71
2023/10/05 01:45:29;;;;;;;9.55;2.78;;;12.80;99.90;;;;;;5072704;28;20055;-70
2023/10/05 01:47:57;;;;;;;9.15;2.78;;;12.80;99.90;;;;;;5076342;28;20046;-70
2023/10/05 01:50:27;;;;;;;9.95;2.72;;;12.70;99.90;;;;;;5075822;28;20059;-71
2023/10/05 01:53:02;;;;;;;9.40;2.85;;;12.80;99.90;;;;;;5076173;28;20054;-72
2023/10/05 01:55:31;;;;;;;15.90;4.15;;;12.80;99.90;;;;;;5075885;28;20064;-72
2023/10/05 01:57:59;;;;;;;9.38;2.45;;;12.80;99.90;;;;;;5075581;28;20075;-71
2023/10/05 02:00:26;;;;;;;7.07;2.65;;;12.80;99.90;;;;;;5076078;28;20052;-71
2023/10/05 02:02:55;;;;;;;6.40;2.63;;;12.80;99.90;;;;;;5075719;28;20101;-71
2023/10/05 02:05:22;;;;;;;12.63;2.72;;;12.80;99.90;;;;;;5075037;28;20518;-70
2023/10/05 02:07:50;;;;;;;9.48;2.47;;;12.80;99.90;;;;;;5075840;28;20067;-70
2023/10/05 02:10:19;;;;;;;8.63;2.60;;;12.80;99.90;;;;;;5074973;28;20051;-70
2023/10/05 02:12:49;;;;;;;7.57;2.60;;;12.80;99.90;;;;;;5089617;28;20046;-71
2023/10/05 02:15:17;;;;;;;8.53;3.10;;;12.80;99.90;;;;;;5075835;28;20105;-71
2023/10/05 02:17:48;;;;;;;9.60;2.97;;;12.80;99.90;;;;;;5075180;28;20047;-72
2023/10/05 02:20:38;;;;;;;;;;;12.80;99.90;;;;;;5075711;28;20090;-71
2023/10/05 02:23:25;;;;;;;11.77;2.72;;;12.80;99.90;;;;;;5093496;28;19928;-71
2023/10/05 02:26:00;;;;;;;12.15;3.45;;;12.80;99.90;;;;;;5075222;28;20055;-71
2023/10/05 02:28:27;;;;;;;8.02;3.35;;;12.90;99.90;;;;;;5075254;28;20155;-72
2023/10/05 02:31:01;;;;;;;14.38;3.70;;;12.90;99.90;;;;;;5075409;28;20047;-71
2023/10/05 02:33:31;;;;;;;9.43;2.72;;;12.90;99.90;;;;;;5074569;28;20044;-72
2023/10/05 02:36:09;;;;;;;10.30;3.03;;;12.90;99.90;;;;;;5075410;28;20044;-71
2023/10/05 02:38:37;;;;;;;14.88;3.67;;;12.90;99.90;;;;;;5074536;28;20109;-71
2023/10/05 02:41:06;;;;;;;10.82;2.60;;;12.90;99.90;;;;;;5074981;28;20075;-71
2023/10/05 02:43:39;;;;;;;12.48;2.78;;;12.90;99.90;;;;;;5074923;28;20090;-71
2023/10/05 02:46:11;;;;;;;7.90;2.35;;;12.90;99.90;;;;;;5074563;28;20090;-72
2023/10/05 02:48:43;;;;;;;9.00;3.00;;;12.90;99.90;;;;;;5074874;28;20052;-72
2023/10/05 02:51:13;;;;;;;11.73;3.30;;;13.00;99.90;;;;;;5074997;28;20230;-71
2023/10/05 02:53:44;;;;;;;13.65;2.92;;;13.00;99.90;;;;;;5074515;28;20430;-71
2023/10/05 02:56:20;;;;;;;9.68;2.92;;;13.00;99.90;;;;;;5075199;28;20062;-71
2023/10/05 02:58:50;;;;;;;11.18;3.47;;;13.00;99.90;;;;;;5075032;28;20055;-71
2023/10/05 03:01:19;;;;;;;12.15;2.90;;;13.00;99.90;;;;;;5074505;28;20052;-72
2023/10/05 03:03:46;;;;;;;11.45;2.72;;;13.10;99.90;;;;;;5074566;28;20484;-71
2023/10/05 03:06:13;;;;;;;11.45;3.47;;;13.10;99.90;;;;;;5074692;28;20055;-70
2023/10/05 03:08:39;;;;;;;10.43;2.97;;;13.20;99.90;;;;;;5074154;28;20637;-72
2023/10/05 03:11:08;;;;;;;8.57;3.25;;;13.20;99.90;;;;;;5074565;28;20063;-71
2023/10/05 03:13:38;;;;;;;19.58;3.65;;;13.30;99.90;;;;;;5074073;28;20051;-71
2023/10/05 03:16:09;;;;;;;9.63;3.15;;;13.30;99.90;;;;;;5070933;28;20044;-71
2023/10/05 03:18:40;;;;;;;7.75;2.75;;;13.40;99.90;;;;;;5074644;28;20047;-70
2023/10/05 03:21:13;;;;;;;11.13;3.08;;;13.50;99.90;;;;;;5073665;28;20063;-71
2023/10/05 03:23:42;;;;;;;13.35;3.22;;;13.60;99.90;;;;;;5074371;28;20040;-70
2023/10/05 03:26:10;;;;;;;12.27;3.03;;;13.70;99.90;;;;;;5069962;28;20059;-71
2023/10/05 03:28:37;;;;;;;12.82;3.17;;;13.80;99.90;;;;;;5073904;28;20052;-71
2023/10/05 03:31:14;;;;;;;10.50;2.90;;;13.80;99.90;;;;;;5092412;28;20055;-70
2023/10/05 03:33:43;;;;;;;13.98;3.58;;;13.90;99.90;;;;;;5070486;28;20492;-71
2023/10/05 03:36:15;;;;;;;13.73;3.22;;;14.00;99.90;;;;;;5073630;28;20051;-71
2023/10/05 03:38:43;;;;;;;10.30;2.92;;;14.00;99.90;;;;;;5074199;28;20044;-71
2023/10/05 03:41:15;;;;;;;9.75;3.75;;;14.10;99.90;;;;;;5073545;28;20059;-71
2023/10/05 03:43:47;;;;;;;9.30;2.70;;;14.00;99.90;;;;;;5091670;28;20377;-71
2023/10/05 03:46:14;;;;;;;11.82;3.22;;;14.10;99.90;;;;;;5074343;28;20093;-71
2023/10/05 03:48:42;;;;;;;11.93;3.03;;;14.10;99.90;;;;;;5073831;28;20503;-71
2023/10/05 03:51:15;;;;;;;11.10;2.95;;;14.10;99.90;;;;;;5070092;28;20704;-71
2023/10/05 03:53:48;;;;;;;11.18;3.30;;;14.10;99.90;;;;;;5073943;28;20044;-71
2023/10/05 03:56:18;;;;;;;18.20;3.42;;;14.00;99.90;;;;;;5073722;28;20385;-71
2023/10/05 03:58:46;;;;;;;17.50;3.47;;;14.00;99.90;;;;;;5074320;28;20138;-72
2023/10/05 04:01:13;;;;;;;9.02;3.13;;;14.00;99.90;;;;;;5070569;28;20442;-71
2023/10/05 04:03:43;;;;;;;7.00;2.78;;;13.90;99.90;;;;;;5073322;28;20044;-70
2023/10/05 04:06:17;;;;;;;9.25;3.03;;;13.90;99.90;;;;;;5074270;28;20056;-72
2023/10/05 04:08:47;;;;;;;15.05;3.70;;;13.80;99.90;;;;;;5074305;28;20442;-71
2023/10/05 04:11:13;;;;;;;11.55;3.10;;;13.80;99.90;;;;;;5091353;28;20416;-71
2023/10/05 04:13:42;;;;;;;10.73;3.10;;;13.70;99.90;;;;;;5092188;28;20040;-71
2023/10/05 04:16:17;;;;;;;11.70;3.00;;;13.70;99.90;;;;;;5073997;28;20117;-71
2023/10/05 04:18:49;;;;;;;10.70;3.22;;;13.70;99.90;;;;;;5073368;28;20393;-70
2023/10/05 04:21:19;;;;;;;10.27;2.83;;;13.70;99.90;;;;;;5073713;28;21349;-70
2023/10/05 04:23:49;;;;;;;12.30;3.70;;;13.60;99.90;;;;;;5073230;28;20074;-70
2023/10/05 04:26:21;;;;;;;11.07;3.72;;;13.60;99.90;;;;;;5074095;28;20048;-71
2023/10/05 04:28:57;;;;;;;10.50;3.35;;;13.60;99.90;;;;;;5074183;28;20393;-71
2023/10/05 04:31:26;;;;;;;17.48;3.13;;;13.70;99.90;;;;;;5073372;28;20130;-70
2023/10/05 04:33:56;;;;;;;11.57;3.38;;;13.70;99.90;;;;;;5073761;28;20037;-70
2023/10/05 04:36:24;;;;;;;9.05;2.80;;;13.60;99.90;;;;;;5073967;28;20051;-71
2023/10/05 04:38:54;;;;;;;8.00;3.03;;;13.60;99.90;;;;;;5073101;28;20044;-71
2023/10/05 04:41:28;;;;;;;12.50;3.28;;;13.60;99.90;;;;;;5073638;28;20044;-71
2023/10/05 04:43:55;;;;;;;19.40;4.32;;;13.70;99.90;;;;;;5073414;28;20041;-71
2023/10/05 04:46:22;;;;;;;10.35;3.30;;;13.70;99.90;;;;;;5072951;28;20052;-71
2023/10/05 04:49:07;;;;;;;13.65;3.58;;;13.70;99.90;;;;;;5073623;28;20056;-69
2023/10/05 04:51:38;;;;;;;13.05;3.75;;;13.60;99.90;;;;;;5074274;28;20048;-69
2023/10/05 04:54:06;;;;;;;14.55;3.40;;;13.60;99.90;;;;;;5077039;28;20044;-69
2023/10/05 04:56:40;;;;;;;12.48;3.42;;;13.60;99.90;;;;;;5077158;28;20157;-69
2023/10/05 04:59:24;;;;;;;9.13;3.22;;;13.60;99.90;;;;;;5076797;28;20047;-71
2023/10/05 05:02:00;;;;;;;14.07;3.28;;;13.60;99.90;;;;;;5077212;28;20492;-71
2023/10/05 05:04:41;;;;;;;11.02;3.22;;;13.50;99.90;;;;;;5073073;28;20207;-70
2023/10/05 05:07:09;;;;;;;15.75;4.05;;;13.50;99.90;;;;;;5094340;28;20542;-70
2023/10/05 05:09:39;;;;;;;10.48;3.38;;;13.50;99.90;;;;;;5095013;28;20076;-70
2023/10/05 05:12:09;;;;;;;13.45;3.08;;;13.60;99.90;;;;;;5076638;28;20500;-70
2023/10/05 05:14:37;;;;;;;;;;;13.50;99.90;;;;;;5076712;28;20048;-70
2023/10/05 05:17:05;;;;;;;13.95;3.55;;;13.60;99.90;;;;;;5076848;28;20006;-71
2023/10/05 05:19:32;;;;;;;14.05;3.92;;;13.50;99.90;;;;;;5074920;28;20531;-71
2023/10/05 05:22:02;;;;;;;13.10;3.97;;;13.60;99.90;;;;;;5075926;28;20044;-71
2023/10/05 05:24:31;;;;;;;12.07;3.65;;;13.50;99.90;;;;;;5076507;28;20131;-70
2023/10/05 05:27:00;;;;;;;15.50;3.90;;;13.50;99.90;;;;;;5076385;28;20044;-69
2023/10/05 05:29:32;;;;;;;16.05;3.35;;;13.50;99.90;;;;;;5076502;28;20044;-71
2023/10/05 05:32:07;;;;;;;16.13;4.88;;;13.50;99.90;;;;;;5094250;28;20119;-70
2023/10/05 05:34:34;;;;;;;14.05;3.28;;;13.50;99.90;;;;;;5063604;28;20492;-70
2023/10/05 05:37:01;;;;;;;12.10;3.90;;;13.50;99.90;;;;;;5071471;28;20052;-70
2023/10/05 05:39:32;;;;;;;11.32;3.17;;;13.50;99.90;;;;;;5064906;28;20044;-69
2023/10/05 05:42:05;;;;;;;15.32;4.00;;;13.60;99.90;;;;;;5066735;28;20047;-70
2023/10/05 05:44:34;;;;;;;18.42;3.72;;;13.60;99.90;;;;;;5072269;28;20040;-69
2023/10/05 05:47:08;;;;;;;13.45;3.25;;;13.60;99.90;;;;;;5070675;28;20060;-70
2023/10/05 05:49:35;;;;;;;14.68;3.85;;;13.70;99.90;;;;;;5064772;28;20048;-70
2023/10/05 05:52:02;;;;;;;13.23;3.10;;;13.70;99.90;;;;;;5089109;28;20075;-69
2023/10/05 05:54:31;;;;;;;25.20;4.00;;;13.70;99.90;;;;;;5062821;28;20127;-70
2023/10/05 05:56:58;;;;;;;19.33;4.00;;;13.80;99.90;;;;;;5066789;28;20049;-70
2023/10/05 05:59:25;;;;;;;17.33;4.20;;;13.80;99.90;;;;;;5070242;28;20117;-69
2023/10/05 06:01:52;;;;;;;13.70;3.40;;;13.90;99.90;;;;;;5073179;28;20108;-70
2023/10/05 06:04:19;;;;;;;11.73;3.08;;;13.90;99.90;;;;;;5070163;28;20396;-70
2023/10/05 06:06:48;;;;;;;10.30;3.00;;;14.10;99.90;;;;;;5068325;28;20105;-69
2023/10/05 06:09:19;;;;;;;13.90;3.28;;;14.10;99.90;;;;;;5069924;28;20143;-69
2023/10/05 06:11:49;;;;;;;14.43;3.55;;;14.10;99.90;;;;;;5072208;28;20127;-69
2023/10/05 06:14:17;;;;;;;10.88;3.63;;;14.20;99.90;;;;;;5071356;28;20132;-69
2023/10/05 06:16:44;;;;;;;17.52;3.78;;;14.20;99.90;;;;;;5071159;28;20087;-68
2023/10/05 06:19:11;;;;;;;8.75;2.97;;;14.20;99.90;;;;;;5068718;28;20052;-69
2023/10/05 06:21:39;;;;;;;13.23;3.67;;;14.30;99.90;;;;;;5072617;28;20044;-67
2023/10/05 06:24:06;;;;;;;21.52;4.22;;;14.40;99.90;;;;;;5069763;28;20047;-69
2023/10/05 06:26:33;;;;;;;13.38;4.13;;;14.40;99.90;;;;;;5071630;28;20047;-70
2023/10/05 06:29:02;;;;;;;12.38;3.65;;;14.40;99.90;;;;;;5046913;28;20123;-70
2023/10/05 06:31:29;;;;;;;21.23;4.78;;;14.50;99.90;;;;;;5037754;28;20052;-69
2023/10/05 06:33:56;;;;;;;13.15;3.50;;;14.50;99.90;;;;;;5040662;28;20056;-69
2023/10/05 06:36:23;;;;;;;14.23;3.67;;;14.50;99.90;;;;;;5040004;28;20524;-69
2023/10/05 06:38:50;;;;;;;16.65;4.97;;;14.50;99.90;;;;;;5052642;28;20053;-69
2023/10/05 06:41:22;;;;;;;13.75;3.60;;;14.60;99.90;;;;;;5044199;28;20049;-70
2023/10/05 06:43:49;;;;;;;14.57;3.42;;;14.70;99.90;;;;;;5061978;28;20799;-70
2023/10/05 06:46:24;;;;;;;19.27;4.00;;;14.70;99.90;;;;;;5040238;28;20176;-69
2023/10/05 06:48:51;;;;;;;15.18;3.58;;;14.70;99.90;;;;;;5059408;28;20515;-69
2023/10/05 06:51:27;;;;;;;12.88;3.40;;;14.80;99.90;;;;;;5071574;28;20516;-68
2023/10/05 06:53:54;;;;;;;13.02;3.50;;;14.90;99.90;;;;;;5064099;28;20040;-68
2023/10/05 06:56:22;;;;;;;15.75;3.85;;;14.90;99.90;;;;;;5070250;28;20627;-68
2023/10/05 06:58:49;;;;;;;14.02;4.50;;;15.00;99.90;;;;;;5065869;28;20052;-68
2023/10/05 07:01:19;;;;;;;13.60;3.78;;;15.00;99.90;;;;;;5067381;28;20461;-68
2023/10/05 07:03:52;;;;;;;11.00;4.15;;;15.10;99.90;;;;;;5068276;28;20052;-68
2023/10/05 07:06:21;;;;;;;19.58;4.53;;;15.20;99.90;;;;;;5069023;28;20047;-70
2023/10/05 07:08:48;;;;;;;13.15;3.42;;;15.30;99.90;;;;;;5070775;28;20044;-69
2023/10/05 07:11:16;;;;;;;9.13;3.30;;;15.50;99.90;;;;;;5066976;28;20052;-69
2023/10/05 07:13:43;;;;;;;26.63;4.85;;;15.60;99.90;;;;;;5071858;28;20047;-69
2023/10/05 07:16:10;;;;;;;14.40;3.17;;;15.70;99.90;;;;;;5047915;28;20117;-69
2023/10/05 07:18:37;;;;;;;11.95;3.60;;;15.80;99.90;;;;;;5071368;28;20104;-68
2023/10/05 07:21:08;;;;;;;16.00;4.75;;;15.80;99.90;;;;;;5070201;28;20051;-69
2023/10/05 07:23:36;;;;;;;12.18;3.50;;;15.80;99.90;;;;;;5073396;28;20492;-70
2023/10/05 07:26:04;;;;;;;11.65;3.22;;;15.90;99.90;;;;;;5069792;28;20129;-69
2023/10/05 07:28:31;;;;;;;12.13;3.85;;;15.60;99.90;;;;;;5072578;28;20557;-69
2023/10/05 07:30:59;;;;;;;9.88;3.00;;;15.90;99.90;;;;;;5066995;28;20047;-70
2023/10/05 07:33:26;;;;;;;17.15;3.72;;;15.80;99.90;;;;;;5066348;28;20072;-70
2023/10/05 07:35:54;;;;;;;11.25;3.65;;;15.80;99.90;;;;;;5087183;28;20066;-69
2023/10/05 07:38:26;;;;;;;11.82;2.95;;;15.80;99.90;;;;;;5069187;28;20052;-70
2023/10/05 07:40:53;;;;;;;12.55;3.63;;;15.80;99.90;;;;;;5065035;28;20541;-70
2023/10/05 07:43:20;;;;;;;18.83;4.38;;;15.90;99.90;;;;;;5072515;28;20450;-70
2023/10/05 07:45:47;;;;;;;13.55;4.20;;;15.80;99.90;;;;;;5071758;28;20407;-70
2023/10/05 07:48:14;;;;;;;15.82;3.72;;;15.80;99.90;;;;;;5071907;28;20052;-69
2023/10/05 07:50:41;;;;;;;12.73;3.35;;;15.80;99.90;;;;;;5069188;28;20052;-69
2023/10/05 07:53:09;;;;;;;15.80;3.22;;;15.70;99.90;;;;;;5071179;28;20472;-69
2023/10/05 07:55:37;;;;;;;11.85;3.83;;;15.70;99.90;;;;;;5067627;28;20047;-72
2023/10/05 07:58:05;;;;;;;11.50;3.15;;;15.70;99.90;;;;;;5088159;28;20040;-72
2023/10/05 08:00:32;;;;;;;10.70;2.80;;;15.70;99.90;;;;;;5067178;28;20067;-71
2023/10/05 08:03:00;;;;;;;11.10;3.50;;;15.70;99.90;;;;;;5070529;28;20400;-71
2023/10/05 08:05:27;;;;;;;16.75;4.15;;;15.70;99.90;;;;;;5070183;28;20055;-71
2023/10/05 08:07:54;;;;;;;16.67;3.95;;;15.80;99.90;;;;;;5069509;28;20568;-71
2023/10/05 08:10:23;;;;;;;17.67;3.53;;;15.70;99.90;;;;;;5088456;28;20673;-71
2023/10/05 08:12:53;;;;;;;13.05;2.90;;;15.80;99.90;;;;;;5069364;28;20477;-71
2023/10/05 08:15:20;;;;;;;12.25;4.13;;;15.90;99.90;;;;;;5071811;28;20492;-71
2023/10/05 08:17:49;;;;;;;11.38;3.35;;;16.00;99.90;;;;;;5065896;28;20131;-71
2023/10/05 08:20:17;;;;;;;16.98;3.33;;;15.90;99.90;;;;;;5063948;28;20055;-71
2023/10/05 08:22:46;;;;;;;11.55;3.28;;;15.90;99.90;;;;;;5066558;28;20059;-71
2023/10/05 08:25:13;;;;;;;10.02;3.22;;;16.00;99.90;;;;;;5066368;28;20355;-72
2023/10/05 08:27:42;;;;;;;15.55;3.38;;;16.00;99.90;;;;;;5069397;28;20063;-71
2023/10/05 08:30:12;;;;;;;13.02;3.35;;;16.00;99.90;;;;;;5072701;28;20052;-72
2023/10/05 08:32:39;;;;;;;14.27;3.50;;;16.00;99.90;;;;;;5090203;28;20075;-72
2023/10/05 08:35:13;;;;;;;14.52;3.33;;;16.00;99.90;;;;;;5068496;28;20047;-72
2023/10/05 08:37:42;;;;;;;10.00;3.30;;;16.00;99.90;;;;;;5069911;28;20048;-72
2023/10/05 08:43:08;;;;;;;12.88;3.60;;;16.10;99.90;;;;;;5070075;28;20052;-74
2023/10/05 08:45:45;;;;;;;11.15;3.75;;;16.00;99.90;;;;;;5073752;28;20032;-74
2023/10/05 08:48:19;;;;;;;15.40;3.60;;;16.00;99.90;;;;;;5076048;28;20105;-74
2023/10/05 08:50:51;;;;;;;11.38;3.42;;;16.00;99.90;;;;;;5076326;28;20079;-74
2023/10/05 08:53:21;;;;;;;8.90;2.83;;;16.00;99.90;;;;;;5076237;28;20464;-73
2023/10/05 08:55:51;;;;;;;8.23;3.40;;;15.90;99.90;;;;;;5077282;28;20485;-73
2023/10/05 08:58:20;;;;;;;9.38;3.13;;;16.00;99.90;;;;;;5076481;28;20044;-74
2023/10/05 09:00:49;;;;;;;11.20;3.08;;;16.10;99.90;;;;;;5072925;28;20131;-73
2023/10/05 09:03:35;;;;;;;17.70;3.72;;;16.10;99.90;;;;;;5076688;28;20056;-73
2023/10/05 09:06:20;;;;;;;10.48;3.78;;;16.00;99.90;;;;;;5076377;28;20036;-73
2023/10/05 09:08:51;;;;;;;12.18;3.63;;;16.00;99.90;;;;;;5076761;28;20082;-74
2023/10/05 09:11:26;;;;;;;8.40;3.25;;;16.00;99.90;;;;;;5076830;28;20052;-73
2023/10/05 09:13:53;;;;;;;12.77;3.97;;;15.90;99.90;;;;;;5076505;28;20043;-74
2023/10/05 09:16:30;;;;;;;8.40;2.92;;;16.00;99.90;;;;;;5076677;28;20047;-74
2023/10/05 09:19:00;;;;;;;9.05;3.35;;;16.00;99.90;;;;;;5074973;28;20087;-73
2023/10/05 09:21:59;;;;;;;13.65;3.67;;;16.00;99.90;;;;;;5076545;28;20447;-74
2023/10/05 09:24:27;;;;;;;10.35;3.80;;;16.00;99.90;;;;;;5076306;28;20054;-74
2023/10/05 09:26:55;;;;;;;10.60;4.15;;;15.90;99.90;;;;;;5076339;28;20117;-73
2023/10/05 09:29:27;;;;;;;8.45;4.70;;;15.90;99.90;;;;;;5072609;28;20055;-74
2023/10/05 09:31:58;;;;;;;11.13;4.80;;;15.90;99.90;;;;;;5076646;28;20048;-74
2023/10/05 09:34:41;;;;;;;14.50;4.18;;;15.80;99.90;;;;;;5094069;28;20113;-74
2023/10/05 09:37:10;;;;;;;8.93;3.53;;;15.80;99.90;;;;;;5076787;28;20040;-74
2023/10/05 09:39:42;;;;;;;13.07;3.60;;;15.70;99.90;;;;;;5075264;28;20059;-74
2023/10/05 09:42:25;;;;;;;9.00;3.30;;;15.70;99.90;;;;;;5076093;28;20064;-74
2023/10/05 09:44:53;;;;;;;11.40;4.53;;;15.80;99.90;;;;;;5076293;28;20036;-73
2023/10/05 09:47:27;;;;;;;11.55;3.72;;;15.80;99.90;;;;;;5075581;28;20051;-74
2023/10/05 09:49:56;;;;;;;11.95;3.88;;;15.80;99.90;;;;;;5076344;28;20071;-73
2023/10/05 09:52:34;;;;;;;13.05;3.60;;;15.80;99.90;;;;;;5076549;28;20373;-73
2023/10/05 09:55:02;;;;;;;12.35;3.50;;;15.80;99.90;;;;;;5093855;28;20036;-74
2023/10/05 09:57:29;;;;;;;15.60;4.22;;;15.70;99.90;;;;;;5072013;28;20059;-73
2023/10/05 10:00:00;;;;;;;18.92;4.45;;;15.90;99.90;;;;;;5076739;28;20056;-74
2023/10/05 10:02:33;;;;;;;12.23;3.78;;;16.00;99.90;;;;;;5076434;28;20079;-74
2023/10/05 10:05:05;;;;;;;11.68;3.70;;;16.10;99.90;;;;;;5072635;28;20051;-73
2023/10/05 10:07:34;;;;;;;10.55;3.90;;;16.30;99.90;;;;;;5072332;28;20055;-74
2023/10/05 10:10:04;;;;;;;9.13;4.07;;;16.50;99.90;;;;;;5075252;28;20059;-74
2023/10/05 10:12:38;;;;;;;11.65;3.20;;;16.70;99.90;;;;;;5075860;28;20510;-74
2023/10/05 10:15:24;;;;;;;9.43;2.88;;;17.00;99.90;;;;;;5091330;28;20044;-73
2023/10/05 10:18:06;;;;;;;11.02;3.20;;;17.20;99.90;;;;;;5071683;28;20048;-73
2023/10/05 10:20:36;;;;;;;12.40;3.47;;;17.50;99.90;;;;;;5071893;28;20138;-73
2023/10/05 10:23:14;;;;;;;9.40;3.22;;;17.80;99.90;;;;;;5075185;28;20048;-73
2023/10/05 10:25:41;;;;;;;12.52;3.10;;;18.00;99.90;;;;;;5073189;28;20506;-72
2023/10/05 10:28:16;;;;;;;7.30;2.97;;;17.90;99.90;;;;;;5075472;28;20082;-73
2023/10/05 10:31:13;;;;;;;8.82;2.78;;;17.90;99.90;;;;;;5070501;28;20058;-73
2023/10/05 10:33:43;;;;;;;14.02;3.00;;;17.70;99.90;;;;;;5072026;28;20040;-72
2023/10/05 10:36:19;;;;;;;5.93;3.03;;;17.70;99.90;;;;;;5075129;28;20044;-73
2023/10/05 10:38:51;;;;;;;9.82;2.58;;;18.10;99.90;;;;;;5075009;28;20351;-73
2023/10/05 10:41:21;;;;;;;9.40;2.95;;;18.50;99.90;;;;;;5075340;28;20048;-73
2023/10/05 10:43:52;;;;;;;10.57;3.28;;;18.70;99.90;;;;;;5092778;28;20048;-73
2023/10/05 10:46:30;;;;;;;12.35;3.08;;;18.80;99.90;;;;;;5071833;28;20044;-73
2023/10/05 10:48:59;;;;;;;10.23;2.72;;;18.70;99.90;;;;;;5075051;28;20047;-73
2023/10/05 10:51:31;;;;;;;9.27;2.58;;;18.50;99.90;;;;;;5071024;28;20408;-73
2023/10/05 10:54:02;;;;;;;7.35;3.05;;;18.20;99.90;;;;;;5070776;28;20507;-73
2023/10/05 10:56:34;;;;;;;9.38;3.08;;;18.00;99.90;;;;;;5074866;28;20048;-72
2023/10/05 11:01:52;;;;;;;14.73;4.68;;;17.40;99.90;;;;;;5074512;28;20043;-73
2023/10/05 11:04:32;;;;;;;12.65;4.15;;;17.20;99.90;;;;;;5074792;28;20039;-73
2023/10/05 11:07:05;;;;;;;12.55;4.22;;;17.20;99.90;;;;;;5071877;28;20154;-73
2023/10/05 11:09:36;;;;;;;8.32;3.70;;;17.20;99.90;;;;;;5074545;28;20052;-72
2023/10/05 11:12:15;;;;;;;9.90;3.50;;;17.20;99.90;;;;;;5069871;28;20507;-72
2023/10/05 11:14:44;;;;;;;11.35;3.90;;;17.30;99.90;;;;;;5074535;28;20044;-72
2023/10/05 11:17:31;;;;;;;13.15;3.30;;;17.60;99.90;;;;;;5074656;28;20060;-73
2023/10/05 11:20:15;;;;;;;8.00;2.90;;;17.80;99.90;;;;;;5063179;28;20055;-73
2023/10/05 11:22:44;;;;;;;11.10;3.15;;;18.00;99.90;;;;;;5050271;28;20404;-73
2023/10/05 11:25:14;;;;;;;10.60;3.13;;;18.10;99.90;;;;;;5054035;28;20492;-73
2023/10/05 11:27:48;;;;;;;11.20;2.90;;;18.30;99.90;;;;;;5054083;28;20045;-73
2023/10/05 11:30:24;;;;;;;7.47;2.55;;;18.40;99.90;;;;;;5054486;28;20060;-73
2023/10/05 11:32:56;;;;;;;10.20;4.50;;;18.40;99.90;;;;;;5053912;28;20495;-73
2023/10/05 11:35:42;;;;;;;9.73;2.95;;;18.40;99.90;;;;;;5054305;28;20576;-73
2023/10/05 11:38:14;;;;;;;8.60;2.78;;;18.50;99.90;;;;;;5054096;28;20058;-73
2023/10/05 11:40:49;;;;;;;6.10;3.30;;;18.50;99.90;;;;;;5053812;28;20044;-73
2023/10/05 11:43:17;;;;;;;6.57;2.10;;;18.90;99.90;;;;;;5050708;28;20063;-74
2023/10/05 11:45:57;;;;;;;6.20;2.13;;;18.90;99.90;;;;;;5053728;28;20094;-74
2023/10/05 11:48:40;;;;;;;7.53;2.38;;;18.90;99.90;;;;;;5053542;28;20056;-73
2023/10/05 11:51:12;;;;;;;6.78;1.98;;;18.70;99.90;;;;;;5028238;28;20072;-74
2023/10/05 11:53:39;;;;;;;5.60;2.28;;;18.30;99.90;;;;;;5045364;28;20075;-74
2023/10/05 11:56:06;;;;;;;5.70;2.53;;;18.20;99.90;;;;;;5050533;28;20136;-74
2023/10/05 11:58:36;;;;;;;6.80;2.67;;;18.10;99.90;;;;;;5049481;28;20056;-73
2023/10/05 12:01:05;;;;;;;7.20;2.07;;;18.10;99.90;;;;;;5051662;28;20416;-73
2023/10/05 12:03:32;;;;;;;7.88;2.30;;;18.00;99.90;;;;;;5054330;28;20056;-72
2023/10/05 12:06:00;;;;;;;8.40;2.20;;;18.00;99.90;;;;;;5055751;28;20052;-73
2023/10/05 12:08:29;;;;;;;6.38;2.00;;;17.90;99.90;;;;;;5052506;28;20056;-73
2023/10/05 12:10:59;;;;;;;7.75;2.47;;;17.90;99.90;;;;;;5055096;28;20055;-73
2023/10/05 12:13:27;;;;;;;4.95;2.28;;;17.80;99.90;;;;;;5054650;28;20132;-74
2023/10/05 12:15:54;;;;;;;6.80;2.40;;;17.80;99.90;;;;;;5049751;28;20508;-72
2023/10/05 12:18:22;;;;;;;9.98;2.80;;;17.80;99.90;;;;;;5051132;28;20094;-72
2023/10/05 12:20:49;;;;;;;9.15;2.65;;;17.80;99.90;;;;;;5049566;28;20108;-73
2023/10/05 12:23:16;;;;;;;5.38;2.50;;;18.20;99.90;;;;;;5052488;28;20515;-73
2023/10/05 12:25:46;;;;;;;10.20;2.80;;;18.40;99.90;;;;;;5052737;28;20055;-72
2023/10/05 12:28:13;;;;;;;6.05;2.70;;;18.80;99.90;;;;;;5054061;28;20382;-72
2023/10/05 12:30:44;;;;;;;8.60;2.35;;;19.20;99.90;;;;;;5051440;28;20049;-72
2023/10/05 12:33:11;;;;;;;12.18;2.85;;;19.30;99.90;;;;;;5051964;28;20052;-74
2023/10/05 12:35:38;;;;;;;10.60;2.80;;;18.90;99.90;;;;;;5052230;28;20045;-72
2023/10/05 12:38:09;;;;;;;6.55;2.97;;;18.80;99.90;;;;;;5053263;28;20453;-73
2023/10/05 12:40:40;;;;;;;11.73;3.50;;;18.60;99.90;;;;;;5056305;28;20204;-72
2023/10/05 12:43:15;;;;;;;10.90;2.90;;;18.50;99.90;;;;;;5052067;28;20080;-72
2023/10/05 12:45:42;;;;;;;8.40;2.60;;;18.40;99.90;;;;;;5053320;28;20041;-72
2023/10/05 12:48:11;;;;;;;10.63;2.53;;;18.30;99.90;;;;;;5047275;28;20046;-73
2023/10/05 12:50:39;;;;;;;7.13;2.50;;;18.50;99.90;;;;;;5050074;28;20420;-72
2023/10/05 12:53:07;;;;;;;8.63;2.35;;;19.10;99.90;;;;;;5049385;28;20040;-73
2023/10/05 12:55:35;;;;;;;12.70;3.95;;;19.70;99.90;;;;;;5048663;28;20075;-73
2023/10/05 12:58:02;;;;;;;10.63;4.88;;;20.20;99.90;;;;;;5048843;28;20048;-73
2023/10/05 13:00:31;;;;;;;7.03;2.72;;;20.30;99.90;;;;;;5055005;28;20058;-73
2023/10/05 13:03:00;;;;;;;10.77;3.23;;;20.50;99.90;;;;;;5071857;28;20071;-72
2023/10/05 13:05:31;;;;;;;11.90;3.53;;;20.70;99.90;;;;;;5050756;28;20215;-71